createdAt,value
2023-02-28T00:01:35.956Z,1.70
2023-02-28T00:04:05.000Z,1.58
2023-02-28T00:06:32.459Z,1.85
2023-02-28T00:08:59.891Z,1.98
2023-02-28T00:11:29.530Z,1.52
2023-02-28T00:13:56.990Z,2.17
2023-02-28T00:16:25.614Z,2.33
2023-02-28T00:18:53.276Z,1.67
2023-02-28T00:21:21.313Z,2.30
2023-02-28T00:23:49.309Z,2.05
2023-02-28T00:26:17.043Z,2.75
2023-02-28T00:28:46.618Z,2.05
2023-02-28T00:31:14.443Z,1.70
2023-02-28T00:33:42.099Z,2.58
2023-02-28T00:36:12.197Z,2.13
2023-02-28T00:38:42.336Z,1.60
2023-02-28T00:41:10.322Z,2.28
2023-02-28T00:43:40.821Z,2.28
2023-02-28T00:46:08.838Z,3.83
2023-02-28T00:48:36.993Z,2.58
2023-02-28T00:51:05.932Z,2.40
2023-02-28T00:53:35.971Z,2.33
2023-02-28T00:56:05.488Z,3.47
2023-02-28T00:58:32.968Z,2.72
2023-02-28T01:01:01.707Z,2.78
2023-02-28T01:03:29.165Z,2.72
2023-02-28T01:05:56.469Z,3.10
2023-02-28T01:08:24.293Z,2.95
2023-02-28T01:10:52.529Z,2.92
2023-02-28T01:13:20.940Z,2.80
2023-02-28T01:15:56.796Z,3.28
2023-02-28T01:18:24.152Z,2.80
2023-02-28T01:20:53.472Z,2.72
2023-02-28T01:23:22.871Z,2.75
2023-02-28T01:25:51.888Z,2.60
2023-02-28T01:28:19.126Z,2.35
2023-02-28T01:30:52.079Z,2.97
2023-02-28T01:33:19.636Z,2.65
2023-02-28T01:35:47.017Z,2.70
2023-02-28T01:38:22.031Z,2.90
2023-02-28T01:40:51.360Z,3.10
2023-02-28T01:43:34.217Z,2.53
2023-02-28T01:46:01.814Z,3.83
2023-02-28T01:48:37.953Z,2.10
2023-02-28T01:51:12.962Z,2.25
2023-02-28T01:53:45.878Z,2.60
2023-02-28T01:56:21.425Z,3.03
2023-02-28T01:58:52.364Z,2.05
2023-02-28T02:01:24.353Z,2.10
2023-02-28T02:03:58.677Z,2.40
2023-02-28T02:06:31.443Z,2.60
2023-02-28T02:08:58.797Z,3.15
2023-02-28T02:11:26.832Z,2.70
2023-02-28T02:14:14.478Z,2.88
2023-02-28T02:17:02.328Z,3.45
2023-02-28T02:19:51.399Z,3.42
2023-02-28T02:22:56.422Z,3.20
2023-02-28T02:25:45.682Z,3.45
2023-02-28T02:28:35.015Z,3.67
2023-02-28T02:31:22.981Z,4.40
2023-02-28T02:34:18.331Z,4.13
2023-02-28T02:37:04.447Z,4.32
2023-02-28T02:39:51.290Z,4.60
2023-02-28T02:42:51.812Z,4.63
2023-02-28T02:45:29.542Z,5.50
2023-02-28T02:48:00.144Z,6.03
2023-02-28T02:50:34.835Z,7.05
2023-02-28T02:53:05.770Z,8.05
2023-02-28T02:55:40.770Z,8.57
2023-02-28T02:58:19.195Z,7.10
2023-02-28T03:00:54.270Z,8.15
2023-02-28T03:03:29.920Z,7.50
2023-02-28T03:06:00.204Z,7.38
2023-02-28T03:08:28.944Z,7.07
2023-02-28T03:11:13.384Z,7.32
2023-02-28T03:14:01.185Z,7.85
2023-02-28T03:16:50.950Z,7.97
2023-02-28T03:19:52.995Z,7.65
2023-02-28T03:22:52.172Z,7.72
2023-02-28T03:25:47.020Z,8.02
2023-02-28T03:28:23.803Z,7.85
2023-02-28T03:30:55.619Z,8.45
2023-02-28T03:33:31.164Z,8.85
2023-02-28T03:36:03.924Z,8.73
2023-02-28T03:38:54.092Z,8.82
2023-02-28T03:41:28.399Z,10.00
2023-02-28T03:44:06.859Z,9.25
2023-02-28T03:46:40.752Z,9.00
2023-02-28T03:49:35.490Z,9.48
2023-02-28T03:52:07.267Z,8.55
2023-02-28T03:54:41.413Z,8.40
2023-02-28T03:57:17.536Z,8.77
2023-02-28T03:59:51.144Z,8.95
2023-02-28T04:02:19.697Z,8.48
2023-02-28T04:04:51.196Z,8.40
2023-02-28T04:07:18.998Z,8.93
2023-02-28T04:09:46.605Z,8.10
2023-02-28T04:12:14.034Z,7.53
2023-02-28T04:14:41.288Z,8.30
2023-02-28T04:17:08.632Z,8.07
2023-02-28T04:19:36.052Z,7.47
2023-02-28T04:22:03.369Z,7.50
2023-02-28T04:24:30.777Z,6.75
2023-02-28T04:26:59.442Z,7.40
2023-02-28T04:29:29.327Z,6.72
2023-02-28T04:31:59.329Z,7.38
2023-02-28T04:34:31.623Z,7.93
2023-02-28T04:37:12.301Z,8.27
2023-02-28T04:39:40.627Z,8.02
2023-02-28T04:42:07.926Z,7.55
2023-02-28T04:44:35.343Z,7.75
2023-02-28T04:47:02.623Z,8.32
2023-02-28T04:49:29.953Z,7.65
2023-02-28T04:51:57.234Z,7.35
2023-02-28T04:54:24.563Z,8.00
2023-02-28T04:56:51.883Z,7.68
2023-02-28T04:59:19.256Z,8.73
2023-02-28T05:01:48.467Z,8.60
2023-02-28T05:04:15.963Z,8.20
2023-02-28T05:06:43.375Z,8.57
2023-02-28T05:09:13.942Z,8.77
2023-02-28T05:14:15.120Z,7.78
2023-02-28T05:16:43.054Z,8.50
2023-02-28T05:19:10.731Z,8.68
2023-02-28T05:21:42.979Z,7.72
2023-02-28T05:24:12.574Z,9.10
2023-02-28T05:26:43.251Z,8.85
2023-02-28T05:29:11.970Z,9.60
2023-02-28T05:31:39.792Z,8.82
2023-02-28T05:34:07.326Z,8.88
2023-02-28T05:36:38.682Z,9.07
2023-02-28T05:39:13.707Z,8.00
2023-02-28T05:41:43.124Z,8.60
2023-02-28T05:44:11.614Z,8.82
2023-02-28T05:46:39.873Z,7.82
2023-02-28T05:49:07.250Z,8.20
2023-02-28T05:51:41.028Z,9.13
2023-02-28T05:54:08.681Z,8.73
2023-02-28T05:56:38.776Z,7.60
2023-02-28T05:59:06.000Z,8.00
2023-02-28T06:01:39.959Z,8.27
2023-02-28T06:04:19.445Z,6.93
2023-02-28T06:06:50.872Z,8.30
2023-02-28T06:09:19.024Z,7.68
2023-02-28T06:11:46.331Z,7.53
2023-02-28T06:14:18.689Z,8.30
2023-02-28T06:16:46.345Z,8.35
2023-02-28T06:19:13.713Z,8.70
2023-02-28T06:21:41.143Z,8.35
2023-02-28T06:24:09.061Z,9.35
2023-02-28T06:26:36.375Z,11.57
2023-02-28T06:29:04.037Z,11.43
2023-02-28T06:31:31.753Z,11.82
2023-02-28T06:33:59.372Z,11.77
2023-02-28T06:36:31.763Z,12.43
2023-02-28T06:38:59.195Z,12.73
2023-02-28T06:41:29.587Z,11.63
2023-02-28T06:43:57.437Z,14.02
2023-02-28T06:46:24.949Z,13.23
2023-02-28T06:48:52.271Z,12.57
2023-02-28T06:51:23.384Z,12.68
2023-02-28T06:53:52.314Z,12.18
2023-02-28T06:56:21.537Z,12.73
2023-02-28T06:58:51.105Z,12.63
2023-02-28T07:01:20.054Z,12.82
2023-02-28T07:03:48.189Z,12.80
2023-02-28T07:06:15.699Z,12.88
2023-02-28T07:08:43.069Z,12.52
2023-02-28T07:11:10.458Z,12.93
2023-02-28T07:13:38.436Z,13.20
2023-02-28T07:16:07.776Z,12.02
2023-02-28T07:18:35.376Z,11.82
2023-02-28T07:21:04.657Z,12.38
2023-02-28T07:23:32.307Z,13.20
2023-02-28T07:26:00.070Z,12.43
2023-02-28T07:28:27.637Z,13.52
2023-02-28T07:30:54.961Z,12.02
2023-02-28T07:33:22.323Z,12.27
2023-02-28T07:35:49.580Z,11.30
2023-02-28T07:38:16.889Z,12.95
2023-02-28T07:40:44.464Z,11.25
2023-02-28T07:43:12.024Z,11.73
2023-02-28T07:45:40.138Z,11.75
2023-02-28T07:48:07.655Z,10.52
2023-02-28T07:50:35.582Z,10.70
2023-02-28T07:53:03.037Z,10.68
2023-02-28T07:55:30.279Z,10.68
2023-02-28T07:57:58.448Z,10.90
2023-02-28T08:00:25.890Z,10.57
2023-02-28T08:02:53.271Z,10.20
2023-02-28T08:05:22.210Z,11.20
2023-02-28T08:07:51.330Z,9.75
2023-02-28T08:10:18.691Z,11.18
2023-02-28T08:12:46.058Z,10.57
2023-02-28T08:15:13.312Z,10.20
2023-02-28T08:17:40.896Z,10.05
2023-02-28T08:20:10.028Z,10.10
2023-02-28T08:22:37.363Z,10.00
2023-02-28T08:25:05.136Z,8.60
2023-02-28T08:27:32.452Z,9.32
2023-02-28T08:29:59.814Z,8.82
2023-02-28T08:32:30.051Z,8.52
2023-02-28T08:34:57.815Z,8.10
2023-02-28T08:37:25.498Z,7.93
2023-02-28T08:39:56.031Z,7.47
2023-02-28T08:42:24.725Z,8.85
2023-02-28T08:44:52.176Z,7.40
2023-02-28T08:47:20.216Z,7.32
2023-02-28T08:49:47.740Z,8.05
2023-02-28T08:52:15.215Z,7.55
2023-02-28T08:54:42.720Z,6.78
2023-02-28T08:57:10.146Z,7.43
2023-02-28T08:59:37.440Z,7.72
2023-02-28T09:02:04.729Z,7.57
2023-02-28T09:04:32.144Z,7.38
2023-02-28T09:06:59.474Z,7.07
2023-02-28T09:09:26.795Z,7.85
2023-02-28T09:11:56.710Z,8.25
2023-02-28T09:14:23.930Z,8.07
2023-02-28T09:16:51.435Z,7.65
2023-02-28T09:19:19.166Z,8.23
2023-02-28T09:21:46.478Z,7.65
2023-02-28T09:24:16.158Z,8.02
2023-02-28T09:26:56.291Z,8.75
2023-02-28T09:29:31.682Z,8.30
2023-02-28T09:32:00.111Z,7.93
2023-02-28T09:34:28.848Z,8.50
2023-02-28T09:36:56.585Z,8.43
2023-02-28T09:39:24.423Z,7.93
2023-02-28T09:41:54.194Z,8.60
2023-02-28T09:44:26.005Z,8.83
2023-02-28T09:47:01.075Z,8.25
2023-02-28T09:49:35.949Z,9.40
2023-02-28T09:52:10.103Z,8.13
2023-02-28T09:54:38.303Z,9.93
2023-02-28T09:57:05.730Z,9.88
2023-02-28T09:59:45.475Z,9.07
2023-02-28T10:02:37.728Z,8.75
2023-02-28T10:05:13.638Z,8.98
2023-02-28T10:08:22.651Z,8.90
2023-02-28T10:10:54.523Z,8.98
2023-02-28T10:13:37.612Z,8.73
2023-02-28T10:16:29.752Z,8.88
2023-02-28T10:19:11.190Z,7.93
2023-02-28T10:21:46.340Z,8.43
2023-02-28T10:24:41.616Z,8.73
2023-02-28T10:27:26.548Z,8.18
2023-02-28T10:29:56.064Z,8.70
2023-02-28T10:32:28.931Z,8.98
2023-02-28T10:35:06.152Z,8.35
2023-02-28T10:37:39.078Z,9.25
2023-02-28T10:40:25.798Z,9.77
2023-02-28T10:42:57.716Z,9.00
2023-02-28T10:45:26.414Z,8.65
2023-02-28T10:48:05.912Z,8.48
2023-02-28T10:50:42.201Z,8.10
2023-02-28T10:53:26.075Z,8.73
2023-02-28T10:56:03.436Z,8.27
2023-02-28T10:58:57.348Z,9.35
2023-02-28T11:01:41.532Z,8.50
2023-02-28T11:04:37.644Z,7.57
2023-02-28T11:07:22.995Z,8.50
2023-02-28T11:09:57.855Z,7.05
2023-02-28T11:12:46.863Z,7.55
2023-02-28T11:15:28.320Z,6.53
2023-02-28T11:18:05.606Z,8.20
2023-02-28T11:20:35.214Z,8.15
2023-02-28T11:23:05.506Z,8.90
2023-02-28T11:25:39.505Z,6.20
2023-02-28T11:28:23.925Z,7.10
2023-02-28T11:31:17.329Z,7.05
2023-02-28T11:33:56.713Z,7.90
2023-02-28T11:36:29.312Z,8.55
2023-02-28T11:39:03.758Z,8.10
2023-02-28T11:42:06.305Z,7.63
2023-02-28T11:44:52.702Z,7.78
2023-02-28T11:47:57.443Z,6.88
2023-02-28T11:50:46.622Z,7.97
2023-02-28T11:53:36.796Z,7.78
2023-02-28T11:56:12.217Z,7.88
2023-02-28T11:58:52.436Z,7.85
2023-02-28T12:01:28.660Z,8.27
2023-02-28T12:04:13.078Z,9.25
2023-02-28T12:07:03.928Z,9.18
2023-02-28T12:12:46.372Z,9.18
2023-02-28T12:15:24.964Z,8.57
2023-02-28T12:18:33.373Z,7.68
2023-02-28T12:21:27.311Z,7.97
2023-02-28T12:24:17.134Z,7.90
2023-02-28T12:26:48.711Z,7.93
2023-02-28T12:29:20.441Z,7.30
2023-02-28T12:31:54.680Z,8.70
2023-02-28T12:34:42.679Z,6.35
2023-02-28T12:37:34.775Z,6.50
2023-02-28T12:40:10.206Z,6.00
2023-02-28T12:42:48.846Z,6.10
2023-02-28T12:45:22.138Z,4.13
2023-02-28T12:47:58.636Z,3.78
2023-02-28T12:50:27.564Z,4.15
2023-02-28T12:53:03.993Z,3.53
2023-02-28T12:56:13.992Z,3.90
2023-02-28T12:58:46.551Z,4.40
2023-02-28T13:01:29.650Z,5.05
2023-02-28T13:04:09.272Z,4.57
2023-02-28T13:06:46.281Z,5.53
2023-02-28T13:09:16.849Z,6.13
2023-02-28T13:11:54.313Z,4.55
2023-02-28T13:14:36.695Z,5.15
2023-02-28T13:17:13.346Z,6.32
2023-02-28T13:19:40.498Z,5.07
2023-02-28T13:22:21.877Z,5.47
2023-02-28T13:24:58.590Z,6.13
2023-02-28T13:27:42.844Z,5.57
2023-02-28T13:30:51.388Z,5.82
2023-02-28T13:33:26.952Z,4.75
2023-02-28T13:36:19.982Z,5.50
2023-02-28T13:38:56.453Z,5.20
2023-02-28T13:41:30.373Z,5.00
2023-02-28T13:44:06.389Z,5.57
2023-02-28T13:46:37.018Z,4.95
2023-02-28T13:52:15.186Z,5.10
2023-02-28T13:55:01.951Z,5.97
2023-02-28T13:57:41.427Z,5.38
2023-02-28T14:00:35.840Z,4.80
2023-02-28T14:03:16.108Z,5.30
2023-02-28T14:05:43.571Z,5.10
2023-02-28T14:08:30.109Z,6.10
2023-02-28T14:11:07.713Z,5.57
2023-02-28T14:13:45.868Z,5.82
2023-02-28T14:16:30.701Z,5.70
2023-02-28T14:19:01.930Z,6.00
2023-02-28T14:21:33.826Z,6.43
2023-02-28T14:24:10.332Z,5.13
2023-02-28T14:27:12.530Z,6.18
2023-02-28T14:29:51.576Z,5.28
2023-02-28T14:32:50.614Z,5.35
2023-02-28T14:35:45.564Z,4.88
2023-02-28T14:38:39.752Z,5.10
2023-02-28T14:41:17.134Z,4.95
2023-02-28T14:43:53.675Z,5.45
2023-02-28T14:46:22.191Z,5.60
2023-02-28T14:48:51.346Z,6.10
2023-02-28T14:51:24.429Z,5.40
2023-02-28T14:54:00.491Z,4.90
2023-02-28T14:56:35.055Z,5.75
2023-02-28T14:59:02.340Z,5.50
2023-02-28T15:01:30.149Z,5.78
2023-02-28T15:04:07.716Z,5.90
2023-02-28T15:06:35.144Z,6.65
2023-02-28T15:09:17.455Z,6.78
2023-02-28T15:11:51.045Z,5.95
2023-02-28T15:14:22.066Z,5.82
2023-02-28T15:16:59.045Z,6.43
2023-02-28T15:19:31.380Z,5.90
2023-02-28T15:22:06.371Z,5.20
2023-02-28T15:24:44.714Z,5.30
2023-02-28T15:27:22.139Z,5.43
2023-02-28T15:29:53.027Z,5.38
2023-02-28T15:32:36.064Z,6.15
2023-02-28T15:35:21.747Z,5.85
2023-02-28T15:37:54.169Z,6.05
2023-02-28T15:40:28.710Z,6.60
2023-02-28T15:43:19.672Z,5.53
2023-02-28T15:45:50.015Z,5.63
2023-02-28T15:48:39.260Z,5.68
2023-02-28T15:51:06.641Z,6.32
2023-02-28T15:53:38.879Z,6.43
2023-02-28T15:56:23.463Z,6.75
2023-02-28T15:58:51.150Z,6.22
2023-02-28T16:01:31.835Z,6.65
2023-02-28T16:06:43.242Z,5.82
2023-02-28T16:09:16.109Z,6.28
2023-02-28T16:11:47.005Z,7.18
2023-02-28T16:14:18.327Z,6.80
2023-02-28T16:16:48.760Z,6.45
2023-02-28T16:19:16.440Z,6.50
2023-02-28T16:21:43.944Z,18.77
2023-02-28T16:24:11.270Z,8.65
2023-02-28T16:26:40.988Z,7.25
2023-02-28T16:29:10.540Z,7.53
2023-02-28T16:31:39.350Z,7.43
2023-02-28T16:34:06.719Z,7.20
2023-02-28T16:36:34.348Z,6.40
2023-02-28T16:39:03.644Z,6.45
2023-02-28T16:41:31.309Z,6.47
2023-02-28T16:44:01.327Z,6.75
2023-02-28T16:46:35.600Z,6.43
2023-02-28T16:49:03.370Z,6.93
2023-02-28T16:51:33.350Z,6.63
2023-02-28T16:54:01.478Z,6.30
2023-02-28T16:56:29.195Z,6.45
2023-02-28T16:59:01.720Z,6.38
2023-02-28T17:01:30.222Z,6.57
2023-02-28T17:03:57.803Z,6.35
2023-02-28T17:06:31.900Z,6.50
2023-02-28T17:09:00.314Z,6.70
2023-02-28T17:11:29.361Z,7.28
2023-02-28T17:13:57.205Z,8.43
2023-02-28T17:16:29.881Z,8.68
2023-02-28T17:19:12.039Z,8.55
2023-02-28T17:21:42.501Z,7.90
2023-02-28T17:24:16.464Z,7.20
2023-02-28T17:26:46.420Z,7.28
2023-02-28T17:29:22.468Z,6.63
2023-02-28T17:31:49.831Z,7.75
2023-02-28T17:34:19.360Z,7.47
2023-02-28T17:36:51.976Z,6.90
2023-02-28T17:39:27.016Z,7.97
2023-02-28T17:41:56.277Z,7.15
2023-02-28T17:44:25.039Z,6.88
2023-02-28T17:46:54.433Z,7.00
2023-02-28T17:49:22.438Z,6.32
2023-02-28T17:51:51.633Z,6.18
2023-02-28T17:54:19.274Z,6.95
2023-02-28T17:56:47.116Z,6.38
2023-02-28T17:59:14.631Z,7.05
2023-02-28T18:01:41.985Z,7.43
2023-02-28T18:04:09.317Z,6.50
2023-02-28T18:06:47.970Z,6.82
2023-02-28T18:09:16.668Z,5.80
2023-02-28T18:11:49.323Z,6.60
2023-02-28T18:14:18.678Z,6.32
2023-02-28T18:16:46.487Z,6.18
2023-02-28T18:19:17.958Z,5.93
2023-02-28T18:21:47.339Z,6.53
2023-02-28T18:24:15.652Z,5.78
2023-02-28T18:26:44.268Z,6.75
2023-02-28T18:29:19.400Z,7.15
2023-02-28T18:31:46.991Z,7.90
2023-02-28T18:34:15.295Z,7.95
2023-02-28T18:36:43.314Z,6.07
2023-02-28T18:39:12.133Z,5.93
2023-02-28T18:41:40.601Z,7.72
2023-02-28T18:44:19.068Z,7.95
2023-02-28T18:46:48.550Z,7.72
2023-02-28T18:49:16.424Z,6.25
2023-02-28T18:51:46.837Z,6.85
2023-02-28T18:54:15.996Z,6.70
2023-02-28T18:56:43.901Z,6.10
2023-02-28T18:59:11.777Z,5.30
2023-02-28T19:01:40.268Z,6.10
2023-02-28T19:04:07.754Z,5.70
2023-02-28T19:06:40.773Z,5.40
2023-02-28T19:09:08.295Z,5.60
2023-02-28T19:11:36.659Z,5.13
2023-02-28T19:14:04.468Z,5.82
2023-02-28T19:16:32.266Z,6.30
2023-02-28T19:18:59.759Z,6.50
2023-02-28T19:21:30.119Z,6.57
2023-02-28T19:23:57.574Z,6.00
2023-02-28T19:26:26.706Z,6.55
2023-02-28T19:28:54.526Z,6.60
2023-02-28T19:31:24.655Z,6.30
2023-02-28T19:33:53.327Z,6.68
2023-02-28T19:36:21.324Z,6.90
2023-02-28T19:38:49.208Z,6.63
2023-02-28T19:41:17.836Z,6.20
2023-02-28T19:43:45.520Z,6.88
2023-02-28T19:46:14.769Z,6.65
2023-02-28T19:48:44.757Z,6.43
2023-02-28T19:51:14.336Z,7.30
2023-02-28T19:53:42.860Z,7.50
2023-02-28T19:56:11.134Z,7.13
2023-02-28T19:58:39.824Z,7.28
2023-02-28T20:01:13.058Z,7.43
2023-02-28T20:03:41.305Z,8.38
2023-02-28T20:06:13.800Z,7.90
2023-02-28T20:08:41.995Z,8.35
2023-02-28T20:11:15.461Z,7.70
2023-02-28T20:13:43.837Z,8.02
2023-02-28T20:16:12.890Z,7.95
2023-02-28T20:18:41.418Z,8.32
2023-02-28T20:21:09.999Z,8.77
2023-02-28T20:23:41.849Z,10.63
2023-02-28T20:26:10.579Z,8.52
2023-02-28T20:28:39.965Z,9.52
2023-02-28T20:31:18.797Z,8.35
2023-02-28T20:33:47.101Z,8.73
2023-02-28T20:36:15.796Z,10.43
2023-02-28T20:38:43.407Z,10.38
2023-02-28T20:41:11.629Z,10.18
2023-02-28T20:43:40.548Z,9.02
2023-02-28T20:46:08.224Z,10.05
2023-02-28T20:48:36.672Z,9.95
2023-02-28T20:51:05.287Z,10.02
2023-02-28T20:53:34.695Z,9.77
2023-02-28T20:56:20.413Z,10.00
2023-02-28T20:58:48.839Z,10.25
2023-02-28T21:01:19.277Z,10.55
2023-02-28T21:03:51.712Z,8.98
2023-02-28T21:06:21.308Z,9.27
2023-02-28T21:08:51.806Z,9.95
2023-02-28T21:11:35.544Z,9.75
2023-02-28T21:14:08.090Z,9.95
2023-02-28T21:16:37.769Z,10.30
2023-02-28T21:19:05.896Z,11.68
2023-02-28T21:21:40.108Z,11.18
2023-02-28T21:24:07.749Z,11.15
2023-02-28T21:26:36.099Z,13.43
2023-02-28T21:29:03.954Z,12.90
2023-02-28T21:31:33.923Z,12.75
2023-02-28T21:34:03.260Z,14.70
2023-02-28T21:36:36.339Z,12.80
2023-02-28T21:39:25.486Z,15.07
2023-02-28T21:41:53.982Z,15.02
2023-02-28T21:44:22.928Z,14.90
2023-02-28T21:46:55.240Z,14.50
2023-02-28T21:49:22.705Z,14.02
2023-02-28T21:51:49.889Z,12.32
2023-02-28T21:54:18.295Z,13.93
2023-02-28T21:56:45.455Z,12.27
2023-02-28T21:59:12.700Z,11.65
2023-02-28T22:01:44.094Z,12.35
2023-02-28T22:04:23.521Z,17.00
2023-02-28T22:06:57.555Z,14.52
2023-02-28T22:09:25.643Z,17.60
2023-02-28T22:11:54.280Z,15.48
2023-02-28T22:14:21.621Z,14.13
2023-02-28T22:16:52.616Z,13.15
2023-02-28T22:19:21.574Z,13.40
2023-02-28T22:21:50.053Z,12.77
2023-02-28T22:24:20.516Z,14.07
2023-02-28T22:26:49.637Z,14.02
2023-02-28T22:29:16.998Z,15.30
2023-02-28T22:31:44.333Z,15.65
2023-02-28T22:34:12.892Z,14.73
2023-02-28T22:36:42.215Z,13.80
2023-02-28T22:39:11.016Z,14.32
2023-02-28T22:41:38.822Z,13.40
2023-02-28T22:44:07.170Z,13.10
2023-02-28T22:46:36.649Z,13.52
2023-02-28T22:49:05.561Z,12.80
2023-02-28T22:51:32.873Z,13.52
2023-02-28T22:54:02.056Z,13.80
2023-02-28T22:56:30.765Z,13.07
2023-02-28T22:58:59.877Z,13.45
2023-02-28T23:01:30.721Z,14.77
2023-02-28T23:03:58.733Z,14.52
2023-02-28T23:06:38.139Z,15.52
2023-02-28T23:09:08.160Z,12.17
2023-02-28T23:11:39.947Z,14.30
2023-02-28T23:14:07.899Z,15.35
2023-02-28T23:16:41.905Z,16.27
2023-02-28T23:19:13.163Z,14.60
2023-02-28T23:21:41.691Z,15.57
2023-02-28T23:24:14.398Z,14.98
2023-02-28T23:26:45.356Z,15.23
2023-02-28T23:29:14.662Z,14.38
2023-02-28T23:31:42.698Z,14.23
2023-02-28T23:34:10.826Z,14.80
2023-02-28T23:36:39.668Z,14.85
2023-02-28T23:39:06.976Z,15.70
2023-02-28T23:41:35.329Z,15.52
2023-02-28T23:44:02.785Z,15.15
2023-02-28T23:46:30.392Z,15.52
2023-02-28T23:48:58.879Z,15.98
2023-02-28T23:51:26.139Z,15.45
2023-02-28T23:53:53.601Z,15.55
2023-02-28T23:56:23.215Z,15.20
2023-02-28T23:58:54.811Z,14.60
